Time;durP1;ratioP1;P1;durP2;ratioP2;P2;SDS_P1;SDS_P2;PMS_P1;PMS_P2;Temp;Humidity;BMP_temperature;BMP_pressure;BME280_temperature;BME280_humidity;BME280_pressure;Samples;Min_cycle;Max_cycle;Signal;HPM_P1;HPM_P2
2021/10/31 00:00:57;;;;;;;18.30;11.30;;;;;;;11.22;52.56;100181.52;119070;1171;21845;-76
2021/10/31 00:03:28;;;;;;;12.20;10.30;;;;;;;11.18;52.76;100180.67;119072;1169;21882;-77
2021/10/31 00:05:56;;;;;;;14.10;10.90;;;;;;;11.15;52.75;100180.17;119186;1171;21862;-77
2021/10/31 00:08:24;;;;;;;13.20;11.50;;;;;;;11.11;52.79;100181.85;119117;1171;23410;-76
2021/10/31 00:10:57;;;;;;;;;;;;;;;11.08;53.06;100182.77;119087;1168;21835;-76
2021/10/31 00:13:38;;;;;;;23.30;14.70;;;;;;;10.97;53.25;100178.66;119116;1168;21867;-75
2021/10/31 00:16:06;;;;;;;22.30;14.60;;;;;;;10.93;53.39;100177.77;119108;1171;21911;-76
2021/10/31 00:18:34;;;;;;;21.20;15.30;;;;;;;10.92;53.38;100176.63;119144;1171;21849;-76
2021/10/31 00:21:01;;;;;;;19.80;13.20;;;;;;;10.92;53.49;100180.75;118683;1174;21861;-75
2021/10/31 00:23:32;;;;;;;17.60;12.40;;;;;;;10.92;53.67;100187.55;118671;1172;22680;-75
2021/10/31 00:26:00;;;;;;;18.00;12.80;;;;;;;10.91;53.62;100199.19;118788;1172;21881;-75
2021/10/31 00:28:30;;;;;;;16.90;12.10;;;;;;;10.88;53.75;100202.64;118655;1174;21883;-76
2021/10/31 00:30:58;;;;;;;16.20;11.50;;;;;;;10.87;53.90;100201.91;118761;1174;21855;-76
2021/10/31 00:33:29;;;;;;;18.40;13.50;;;;;;;10.83;53.86;100197.19;118706;1172;22941;-76
2021/10/31 00:36:01;;;;;;;17.40;13.30;;;;;;;10.81;54.02;100197.46;118648;1174;23592;-76
2021/10/31 00:38:39;;;;;;;16.00;12.50;;;;;;;10.78;54.13;100195.05;118778;1174;21927;-76
2021/10/31 00:41:12;;;;;;;;;;;;;;;10.75;54.15;100190.52;118383;1174;21847;-76
2021/10/31 00:43:42;;;;;;;15.80;13.40;;;;;;;10.68;54.40;100188.34;118652;1176;23542;-76
2021/10/31 00:46:10;;;;;;;13.70;12.20;;;;;;;10.67;54.41;100189.33;118592;1175;21888;-76
2021/10/31 00:48:39;;;;;;;20.40;14.70;;;;;;;10.66;54.43;100184.88;118809;1175;21879;-76
2021/10/31 00:51:08;;;;;;;21.60;15.00;;;;;;;10.65;54.55;100183.59;118741;1172;22931;-76
2021/10/31 00:53:41;;;;;;;16.20;13.10;;;;;;;10.64;54.68;100188.11;118697;1165;22320;-76
2021/10/31 00:56:12;;;;;;;19.20;14.80;;;;;;;10.62;54.71;100192.82;118509;1177;21870;-77
2021/10/31 00:58:40;;;;;;;22.30;15.70;;;;;;;10.61;54.66;100196.48;118331;1177;23609;-77
2021/10/31 01:01:11;;;;;;;21.60;15.20;;;;;;;10.58;54.70;100194.68;118324;1164;21861;-76
2021/10/31 01:03:43;;;;;;;;;;;;;;;10.55;54.77;100191.17;117964;1178;22178;-75
2021/10/31 01:06:48;;;;;;;18.30;14.60;;;;;;;10.44;55.07;100180.08;118237;1178;22625;-76
2021/10/31 01:09:42;;;;;;;16.50;13.10;;;;;;;10.35;55.27;100174.17;118381;1174;21877;-77
2021/10/31 01:12:46;;;;;;;19.80;13.70;;;;;;;10.29;55.42;100172.90;118275;1172;22893;-76
2021/10/31 01:16:12;;;;;;;18.40;13.10;;;;;;;10.23;55.69;100168.23;118670;1175;21931;-76
2021/10/31 01:19:12;;;;;;;18.50;13.50;;;;;;;10.20;55.96;100161.26;117842;1179;23540;-77
2021/10/31 01:22:02;;;;;;;18.70;12.90;;;;;;;10.18;56.16;100168.02;117803;1181;24027;-75
2021/10/31 01:24:51;;;;;;;15.90;13.40;;;;;;;10.18;56.23;100189.27;117442;1185;21858;-76
2021/10/31 01:28:28;;;;;;;15.70;13.40;;;;;;;10.20;56.27;100198.05;117482;1182;22321;-76
2021/10/31 01:31:28;;;;;;;20.60;13.80;;;;;;;10.23;56.31;100199.42;117067;1186;22142;-77
2021/10/31 01:34:23;;;;;;;20.10;12.60;;;;;;;10.27;56.35;100202.52;117092;1183;22351;-76
2021/10/31 01:37:11;;;;;;;18.70;14.10;;;;;;;10.31;56.47;100206.84;117057;1187;22968;-77
2021/10/31 01:39:51;;;;;;;15.60;13.30;;;;;;;10.34;56.50;100199.66;117134;1183;21877;-77
2021/10/31 01:42:28;;;;;;;16.20;12.90;;;;;;;10.34;56.45;100197.35;117194;1184;23431;-76
2021/10/31 01:45:47;;;;;;;20.30;12.10;;;;;;;10.34;56.49;100203.42;117503;1184;22045;-77
2021/10/31 01:48:22;;;;;;;17.40;13.10;;;;;;;10.31;56.64;100218.99;116851;1186;22860;-77
2021/10/31 01:50:56;;;;;;;19.40;12.80;;;;;;;10.31;56.61;100222.83;116831;1186;21882;-76
2021/10/31 01:53:53;;;;;;;18.90;12.60;;;;;;;10.32;56.56;100220.79;116773;1183;21882;-76
2021/10/31 01:56:23;;;;;;;22.20;14.50;;;;;;;10.29;56.52;100213.93;117344;1183;21926;-76
2021/10/31 01:59:20;;;;;;;22.70;16.00;;;;;;;10.26;56.61;100213.21;117661;1183;21988;-76
2021/10/31 02:01:50;;;;;;;20.30;15.10;;;;;;;10.24;56.73;100213.48;117724;1179;21906;-76
2021/10/31 02:04:25;;;;;;;19.60;16.20;;;;;;;10.23;56.86;100219.03;117955;1177;21864;-76
2021/10/31 02:06:56;;;;;;;25.20;17.10;;;;;;;10.22;56.83;100218.08;118046;1178;21884;-76
2021/10/31 02:09:30;;;;;;;21.30;15.40;;;;;;;10.20;56.81;100216.45;118347;1177;23424;-76
2021/10/31 02:12:01;;;;;;;21.40;15.00;;;;;;;10.21;57.00;100214.81;118180;1175;21884;-76
2021/10/31 02:14:30;;;;;;;18.20;13.80;;;;;;;10.22;57.06;100212.60;118281;1178;21861;-77
2021/10/31 02:16:58;;;;;;;20.60;15.70;;;;;;;10.20;57.11;100216.47;118193;1174;21965;-76
2021/10/31 02:19:53;;;;;;;16.20;14.40;;;;;;;10.20;57.14;100224.84;118262;1174;23415;-77
2021/10/31 02:22:28;;;;;;;16.70;14.80;;;;;;;10.18;57.18;100222.87;118167;1178;22847;-76
2021/10/31 02:25:02;;;;;;;17.50;14.80;;;;;;;10.16;57.24;100219.08;118441;1174;23403;-77
2021/10/31 02:27:33;;;;;;;20.60;14.50;;;;;;;10.11;57.15;100214.80;118464;1176;23115;-77
2021/10/31 02:30:04;;;;;;;18.30;14.50;;;;;;;10.05;57.19;100212.52;118570;1174;21879;-77
2021/10/31 02:32:36;;;;;;;20.90;14.00;;;;;;;9.99;57.44;100212.19;118787;1174;23531;-78
2021/10/31 02:35:20;;;;;;;19.30;14.00;;;;;;;9.95;57.61;100213.80;118801;1174;22932;-78
2021/10/31 02:37:51;;;;;;;17.30;13.40;;;;;;;9.94;57.83;100217.23;118953;1174;21870;-77
2021/10/31 02:40:23;;;;;;;18.10;14.30;;;;;;;9.96;57.89;100217.75;118806;1174;21880;-77
2021/10/31 02:42:51;;;;;;;15.20;13.60;;;;;;;9.98;57.88;100217.33;118226;1178;21867;-77
2021/10/31 02:45:21;;;;;;;15.90;12.80;;;;;;;10.00;57.93;100213.60;118288;1176;22924;-76
2021/10/31 02:47:59;;;;;;;15.60;12.50;;;;;;;10.02;57.92;100211.81;118547;1174;21857;-77
2021/10/31 02:50:38;;;;;;;17.90;13.70;;;;;;;10.00;57.96;100210.49;118287;1176;23492;-77
2021/10/31 02:53:25;;;;;;;17.60;13.80;;;;;;;9.93;58.12;100212.29;118499;1174;22522;-77
2021/10/31 02:56:27;;;;;;;16.50;13.30;;;;;;;9.90;58.32;100210.98;118612;1176;23440;-76
2021/10/31 02:59:23;;;;;;;20.40;15.40;;;;;;;9.87;58.47;100205.79;118282;1175;23703;-76
2021/10/31 03:01:53;;;;;;;18.50;14.10;;;;;;;9.84;58.62;100210.70;118195;1178;23518;-77
2021/10/31 03:04:30;;;;;;;19.80;16.20;;;;;;;9.83;58.77;100217.50;118005;1180;21915;-77
2021/10/31 03:07:00;;;;;;;18.40;14.10;;;;;;;9.84;58.77;100220.27;117902;1177;22639;-77
2021/10/31 03:09:36;;;;;;;16.30;14.00;;;;;;;9.84;58.78;100219.73;118341;1175;22628;-76
2021/10/31 03:12:09;;;;;;;17.90;13.80;;;;;;;9.85;58.88;100223.51;118244;1176;23490;-77
2021/10/31 03:14:38;;;;;;;17.00;13.70;;;;;;;9.88;58.96;100230.06;118552;1176;21876;-75
2021/10/31 03:17:09;;;;;;;15.50;12.60;;;;;;;9.92;59.00;100241.21;118671;1176;21857;-75
2021/10/31 03:19:40;;;;;;;14.90;13.00;;;;;;;9.97;58.96;100247.38;118396;1176;22907;-76
2021/10/31 03:22:14;;;;;;;17.00;14.60;;;;;;;10.01;58.82;100252.02;118434;1174;23604;-76
2021/10/31 03:24:47;;;;;;;15.50;12.30;;;;;;;10.04;58.87;100249.74;118109;1177;22893;-76
2021/10/31 03:27:15;;;;;;;17.10;14.10;;;;;;;10.07;58.97;100246.29;118229;1177;23447;-75
2021/10/31 03:29:43;;;;;;;15.10;11.60;;;;;;;10.09;59.00;100245.56;118472;1174;21878;-75
2021/10/31 03:32:10;;;;;;;17.70;14.00;;;;;;;10.08;58.95;100249.34;118303;1177;21878;-76
2021/10/31 03:34:38;;;;;;;15.00;13.30;;;;;;;10.07;58.98;100250.09;117827;1180;22802;-76
2021/10/31 03:37:06;;;;;;;15.20;13.60;;;;;;;10.06;59.01;100253.20;118178;1166;22904;-77
2021/10/31 03:39:37;;;;;;;15.70;12.50;;;;;;;10.05;58.99;100250.17;118142;1178;22633;-76
2021/10/31 03:42:05;;;;;;;15.70;13.60;;;;;;;10.04;59.12;100248.33;118302;1174;23421;-77
2021/10/31 03:44:47;;;;;;;17.70;12.90;;;;;;;10.05;59.08;100248.95;118652;1171;21860;-76
2021/10/31 03:47:19;;;;;;;16.30;14.40;;;;;;;10.04;59.16;100253.91;118824;1174;22815;-77
2021/10/31 03:49:47;;;;;;;16.00;12.90;;;;;;;10.04;59.30;100257.10;118211;1178;22654;-77
2021/10/31 03:52:18;;;;;;;16.90;13.20;;;;;;;10.05;59.39;100259.13;118165;1177;21864;-77
2021/10/31 03:54:45;;;;;;;15.30;13.40;;;;;;;10.06;59.43;100260.93;118600;1175;22943;-76
2021/10/31 03:57:13;;;;;;;20.10;14.40;;;;;;;10.07;59.38;100263.29;118634;1162;21919;-77
2021/10/31 03:59:41;;;;;;;22.10;14.80;;;;;;;10.08;59.48;100266.34;118442;1174;24110;-77
2021/10/31 04:02:09;;;;;;;15.30;13.60;;;;;;;10.10;59.58;100258.58;118654;1174;21868;-77
2021/10/31 04:04:37;;;;;;;17.50;14.10;;;;;;;10.09;59.55;100263.47;118641;1175;21869;-77
2021/10/31 04:07:05;;;;;;;17.60;14.40;;;;;;;10.08;59.50;100270.27;118631;1172;23508;-76
2021/10/31 04:09:36;;;;;;;17.90;14.40;;;;;;;10.06;59.53;100269.60;119071;1172;21843;-75
2021/10/31 04:12:05;;;;;;;15.50;13.10;;;;;;;10.04;59.56;100273.73;119073;1172;23632;-75
2021/10/31 04:14:32;;;;;;;15.90;13.60;;;;;;;10.01;59.66;100275.13;119019;1169;23470;-76
2021/10/31 04:17:02;;;;;;;18.40;15.30;;;;;;;9.99;59.77;100274.20;119052;1172;23445;-75
2021/10/31 04:19:30;;;;;;;19.30;14.50;;;;;;;9.99;59.78;100273.50;118900;1172;22889;-77
2021/10/31 04:21:58;;;;;;;16.10;14.40;;;;;;;9.99;59.81;100271.03;118917;1172;21866;-76
2021/10/31 04:24:33;;;;;;;16.50;14.80;;;;;;;9.98;59.94;100271.33;119055;1171;21858;-76
2021/10/31 04:27:17;;;;;;;20.40;14.10;;;;;;;9.99;60.02;100271.77;119193;1168;21961;-75
2021/10/31 04:29:45;;;;;;;16.40;14.20;;;;;;;9.98;60.07;100272.55;118913;1171;23609;-76
2021/10/31 04:32:13;;;;;;;20.70;14.80;;;;;;;10.00;60.10;100272.78;118896;1173;22664;-76
2021/10/31 04:34:41;;;;;;;19.60;15.70;;;;;;;10.00;60.14;100275.05;118655;1174;22628;-76
2021/10/31 04:37:09;;;;;;;18.40;14.10;;;;;;;10.00;60.23;100273.04;118736;1174;23524;-77
2021/10/31 04:39:37;;;;;;;18.20;14.00;;;;;;;10.00;60.32;100273.44;118787;1174;23634;-75
2021/10/31 04:42:09;;;;;;;19.30;15.60;;;;;;;9.99;60.32;100271.96;118709;1174;22605;-75
2021/10/31 04:44:38;;;;;;;24.20;15.70;;;;;;;9.99;60.42;100271.27;118771;1174;22604;-75
2021/10/31 04:47:06;;;;;;;18.80;15.00;;;;;;;9.99;60.51;100270.73;118806;1173;23568;-76
2021/10/31 04:49:34;;;;;;;15.40;13.80;;;;;;;9.99;60.53;100271.63;118766;1168;21854;-76
2021/10/31 04:52:05;;;;;;;17.20;14.40;;;;;;;10.01;60.56;100275.61;118807;1172;21869;-75
2021/10/31 04:54:33;;;;;;;20.50;15.20;;;;;;;10.01;60.53;100278.25;119088;1168;21869;-77
2021/10/31 04:57:01;;;;;;;19.10;14.20;;;;;;;10.01;60.57;100273.30;118901;1172;22206;-76
2021/10/31 04:59:29;;;;;;;16.40;14.10;;;;;;;9.99;60.48;100273.89;118751;1170;21857;-76
2021/10/31 05:01:57;;;;;;;19.10;14.70;;;;;;;9.96;60.59;100273.66;118686;1173;21849;-76
2021/10/31 05:04:25;;;;;;;17.40;13.60;;;;;;;9.93;60.64;100273.34;119012;1173;23406;-77
2021/10/31 05:06:55;;;;;;;16.30;14.60;;;;;;;9.88;60.67;100274.48;118854;1170;22854;-76
2021/10/31 05:09:28;;;;;;;18.50;13.50;;;;;;;9.86;60.79;100271.06;118929;1173;23660;-76
2021/10/31 05:11:56;;;;;;;15.30;13.40;;;;;;;9.84;60.84;100268.76;118782;1173;23062;-76
2021/10/31 05:14:24;;;;;;;19.10;14.20;;;;;;;9.84;60.90;100269.72;118966;1173;23415;-77
2021/10/31 05:16:56;;;;;;;16.60;14.40;;;;;;;9.83;60.95;100273.34;118801;1172;23434;-75
2021/10/31 05:19:24;;;;;;;16.20;14.40;;;;;;;9.84;61.09;100273.73;119152;1167;21863;-78
2021/10/31 05:21:55;;;;;;;16.70;14.60;;;;;;;9.84;61.15;100272.68;118916;1172;21869;-75
2021/10/31 05:24:23;;;;;;;18.40;16.10;;;;;;;9.84;61.10;100280.23;118846;1174;21875;-81
2021/10/31 05:26:56;;;;;;;18.40;14.60;;;;;;;9.85;61.20;100279.77;118767;1174;23412;-75
2021/10/31 05:29:31;;;;;;;18.80;14.20;;;;;;;9.86;61.23;100282.61;118770;1171;22532;-77
2021/10/31 05:31:59;;;;;;;18.10;16.00;;;;;;;9.88;61.28;100284.69;118310;1177;23422;-76
2021/10/31 05:34:28;;;;;;;19.60;16.20;;;;;;;9.91;61.29;100279.30;118530;1174;21873;-76
2021/10/31 05:36:56;;;;;;;20.20;15.50;;;;;;;9.93;61.35;100281.88;118337;1177;21845;-76
2021/10/31 05:39:23;;;;;;;19.50;15.70;;;;;;;9.95;61.39;100285.21;118415;1177;21855;-75
2021/10/31 05:41:51;;;;;;;19.20;16.40;;;;;;;9.98;61.37;100279.81;118361;1177;21858;-76
2021/10/31 05:44:19;;;;;;;20.60;15.60;;;;;;;10.01;61.32;100282.28;118096;1177;21868;-76
2021/10/31 05:46:52;;;;;;;22.10;16.60;;;;;;;10.04;61.35;100290.03;118076;1170;21879;-76
2021/10/31 05:49:20;;;;;;;19.90;16.10;;;;;;;10.08;61.23;100292.67;118134;1177;22636;-78
2021/10/31 05:51:47;;;;;;;23.50;16.60;;;;;;;10.12;61.28;100298.91;118211;1178;23450;-75
2021/10/31 05:54:15;;;;;;;18.60;15.20;;;;;;;10.17;61.20;100299.06;118230;1179;22831;-77
2021/10/31 05:56:46;;;;;;;20.10;16.60;;;;;;;10.21;61.11;100299.79;118443;1176;23524;-77
2021/10/31 05:59:14;;;;;;;18.80;15.30;;;;;;;10.24;61.05;100303.48;118678;1176;24123;-77
2021/10/31 06:01:41;;;;;;;23.10;15.30;;;;;;;10.25;60.93;100300.98;118530;1172;21854;-77
2021/10/31 06:04:09;;;;;;;17.50;14.40;;;;;;;10.26;60.89;100299.84;119227;1171;23420;-77
2021/10/31 06:06:40;;;;;;;18.40;14.70;;;;;;;10.26;60.88;100303.20;119143;1171;21853;-77
2021/10/31 06:09:14;;;;;;;22.70;15.50;;;;;;;10.26;60.94;100306.67;119056;1171;22921;-77
2021/10/31 06:11:41;;;;;;;15.40;13.80;;;;;;;10.29;60.88;100306.93;119189;1171;21837;-77
2021/10/31 06:14:13;;;;;;;18.20;15.60;;;;;;;10.31;60.85;100302.58;119044;1171;21855;-77
2021/10/31 06:16:41;;;;;;;17.40;15.30;;;;;;;10.35;60.78;100307.66;119089;1170;22846;-78
2021/10/31 06:19:09;;;;;;;22.20;16.20;;;;;;;10.37;60.83;100310.95;119118;1171;23410;-78
2021/10/31 06:21:42;;;;;;;438.00;337.90;;;;;;;10.41;60.71;100318.86;119050;1173;23484;-78
2021/10/31 06:24:12;;;;;;;233.60;162.20;;;;;;;10.47;60.77;100318.52;118831;1174;23426;-79
2021/10/31 06:26:42;;;;;;;166.20;101.30;;;;;;;10.54;60.68;100318.25;118914;1171;21935;-79
2021/10/31 06:29:13;;;;;;;92.50;54.80;;;;;;;10.62;60.70;100320.02;118835;1174;22752;-81
2021/10/31 06:31:50;;;;;;;70.40;41.90;;;;;;;10.71;60.65;100323.95;118383;1171;21850;-78
2021/10/31 06:34:29;;;;;;;58.60;32.30;;;;;;;10.78;60.48;100322.65;118322;1177;21913;-78
2021/10/31 06:36:57;;;;;;;38.90;24.00;;;;;;;10.83;60.28;100325.44;118572;1176;21916;-79
2021/10/31 06:39:28;;;;;;;41.70;27.10;;;;;;;10.89;60.16;100327.41;118627;1174;21854;-79
2021/10/31 06:42:00;;;;;;;30.00;20.00;;;;;;;10.96;60.12;100329.83;118550;1177;22943;-78
2021/10/31 06:44:35;;;;;;;34.00;22.30;;;;;;;11.02;59.99;100333.55;118034;1180;22636;-79
2021/10/31 06:47:07;;;;;;;26.90;20.60;;;;;;;11.09;59.79;100336.13;118397;1179;21881;-78
2021/10/31 06:49:38;;;;;;;31.90;23.20;;;;;;;11.16;59.73;100334.98;118097;1177;21852;-78
2021/10/31 06:52:06;;;;;;;27.60;21.60;;;;;;;11.23;59.72;100335.60;118340;1178;22891;-78
2021/10/31 06:54:34;;;;;;;33.40;22.80;;;;;;;11.30;59.51;100337.61;118405;1167;22942;-78
2021/10/31 06:57:04;;;;;;;30.10;21.20;;;;;;;11.36;59.20;100337.69;118398;1178;21888;-78
2021/10/31 06:59:34;;;;;;;24.80;19.00;;;;;;;11.40;59.01;100337.94;118437;1174;21879;-78
2021/10/31 07:02:19;;;;;;;30.40;21.60;;;;;;;11.45;58.96;100341.77;118261;1175;24263;-78
2021/10/31 07:05:01;;;;;;;28.70;19.60;;;;;;;11.51;58.85;100342.46;118838;1174;22911;-78
2021/10/31 07:07:29;;;;;;;33.90;22.10;;;;;;;11.58;58.71;100339.22;118701;1174;23735;-78
2021/10/31 07:09:59;;;;;;;32.00;20.30;;;;;;;11.65;58.62;100340.77;118852;1173;23473;-78
2021/10/31 07:12:27;;;;;;;31.00;21.10;;;;;;;11.73;58.52;100341.78;118983;1174;24200;-79
2021/10/31 07:14:57;;;;;;;25.80;19.10;;;;;;;11.81;58.46;100344.40;118713;1176;22308;-79
2021/10/31 07:17:29;;;;;;;26.00;17.90;;;;;;;11.89;58.31;100337.83;118925;1173;21910;-79
2021/10/31 07:20:02;;;;;;;22.40;17.90;;;;;;;11.98;58.14;100340.70;118897;1173;22978;-79
2021/10/31 07:22:32;;;;;;;;;;;;;;;12.08;57.87;100337.25;118671;1174;21924;-78
2021/10/31 07:25:05;;;;;;;;;;;;;;;12.11;57.83;100341.34;118362;1178;21836;-78
2021/10/31 07:27:34;;;;;;;23.40;17.20;;;;;;;12.12;57.88;100344.66;118571;1177;21894;-79
2021/10/31 07:30:03;;;;;;;23.50;18.90;;;;;;;12.25;57.84;100347.64;118340;1178;22273;-78
2021/10/31 07:32:37;;;;;;;20.10;16.90;;;;;;;12.38;57.46;100345.57;118331;1179;21886;-78
2021/10/31 07:35:10;;;;;;;22.20;18.20;;;;;;;12.51;57.27;100343.36;118179;1178;21996;-78
2021/10/31 07:37:38;;;;;;;19.40;17.30;;;;;;;12.64;56.94;100348.50;117715;1184;21856;-76
2021/10/31 07:40:09;;;;;;;18.30;16.30;;;;;;;12.75;56.56;100354.45;117867;1182;21875;-78
2021/10/31 07:42:46;;;;;;;19.00;16.30;;;;;;;12.85;56.12;100354.35;118061;1178;23529;-79
2021/10/31 07:45:43;;;;;;;21.80;17.40;;;;;;;12.88;55.28;100352.60;118280;1177;23427;-78
2021/10/31 07:48:15;;;;;;;;;;;;;;;12.91;55.11;100349.24;118055;1181;23550;-79
2021/10/31 07:50:45;;;;;;;27.30;19.10;;;;;;;12.92;55.15;100351.41;118143;1180;21858;-79
2021/10/31 07:53:21;;;;;;;24.50;17.20;;;;;;;12.96;55.16;100352.83;118458;1177;21885;-78
2021/10/31 07:55:55;;;;;;;21.70;16.20;;;;;;;13.03;54.95;100351.53;118555;1174;21849;-79
2021/10/31 07:58:28;;;;;;;23.10;20.20;;;;;;;13.11;54.84;100353.76;119102;1174;21885;-79
2021/10/31 08:00:57;;;;;;;277.10;187.90;;;;;;;13.17;54.49;100351.77;118936;1171;22440;-78
2021/10/31 08:03:34;;;;;;;88.90;58.50;;;;;;;13.25;54.41;100353.80;118516;1176;21882;-79
2021/10/31 08:06:06;;;;;;;36.10;26.60;;;;;;;13.30;54.19;100352.48;118418;1174;21857;-78
2021/10/31 08:08:36;;;;;;;56.90;34.10;;;;;;;13.30;53.75;100348.08;118862;1174;21895;-79
2021/10/31 08:11:10;;;;;;;27.30;20.70;;;;;;;13.33;53.88;100344.02;118917;1173;23553;-79
2021/10/31 08:13:49;;;;;;;19.50;16.90;;;;;;;13.39;53.90;100345.38;119077;1174;21880;-80
2021/10/31 08:16:21;;;;;;;22.80;19.30;;;;;;;13.49;54.00;100344.78;118487;1176;22090;-80
2021/10/31 08:18:49;;;;;;;19.60;17.10;;;;;;;13.55;53.75;100342.02;118543;1166;22002;-80
2021/10/31 08:21:17;;;;;;;23.20;18.10;;;;;;;13.62;53.68;100340.94;118551;1175;22402;-79
2021/10/31 08:23:49;;;;;;;;;;;;;;;13.73;53.73;100341.55;118427;1177;22912;-78
2021/10/31 08:26:21;;;;;;;30.80;19.60;;;;;;;13.76;53.44;100341.04;118175;1179;24138;-79
2021/10/31 08:28:51;;;;;;;20.60;17.80;;;;;;;13.80;53.21;100343.94;118231;1179;22682;-79
2021/10/31 08:31:40;;;;;;;23.30;20.50;;;;;;;13.84;53.22;100341.85;118449;1179;22979;-79
2021/10/31 08:34:10;;;;;;;21.30;17.90;;;;;;;13.89;52.92;100345.13;118446;1177;23347;-80
2021/10/31 08:36:42;;;;;;;26.60;18.60;;;;;;;13.94;52.88;100345.67;118573;1174;23536;-79
2021/10/31 08:39:15;;;;;;;30.80;17.80;;;;;;;14.03;53.02;100340.44;118279;1177;21864;-80
2021/10/31 08:41:46;;;;;;;26.40;21.50;;;;;;;14.10;52.74;100334.16;118286;1179;23596;-80
2021/10/31 08:44:35;;;;;;;;;;;;;;;;;;;;;
2021/10/31 08:47:09;;;;;;;28.00;20.60;;;;;;;14.16;52.29;100325.02;118289;1178;23550;-80
2021/10/31 08:49:37;;;;;;;28.10;20.50;;;;;;;14.19;52.26;100323.70;118318;1178;22072;-80
2021/10/31 08:52:07;;;;;;;46.70;33.70;;;;;;;14.19;52.10;100323.63;118566;1171;21893;-79
2021/10/31 08:54:38;;;;;;;36.50;27.50;;;;;;;14.23;52.15;100320.54;118317;1178;21975;-79
2021/10/31 08:57:07;;;;;;;23.20;19.80;;;;;;;14.27;52.05;100323.06;118380;1174;22036;-79
2021/10/31 08:59:41;;;;;;;27.60;20.90;;;;;;;14.29;51.88;100320.33;118425;1176;23505;-80
2021/10/31 09:02:09;;;;;;;20.20;17.80;;;;;;;14.33;51.96;100320.45;118638;1175;21902;-78
2021/10/31 09:04:40;;;;;;;25.00;20.60;;;;;;;14.35;51.63;100320.11;118490;1175;23422;-78
2021/10/31 09:07:14;;;;;;;24.80;20.90;;;;;;;14.37;51.72;100317.70;118497;1177;22776;-80
2021/10/31 09:09:43;;;;;;;23.60;19.50;;;;;;;14.41;51.76;100318.02;118493;1169;21859;-79
2021/10/31 09:12:18;;;;;;;;;;;;;;;14.47;51.61;100317.48;118608;1177;21842;-79
2021/10/31 09:14:46;;;;;;;;;;;;;;;14.44;51.68;100318.91;118745;1177;23525;-80
2021/10/31 09:17:21;;;;;;;23.60;18.50;;;;;;;14.44;51.98;100319.23;118728;1174;21858;-80
2021/10/31 09:19:49;;;;;;;27.40;19.90;;;;;;;14.52;51.91;100318.45;118723;1176;22004;-80
2021/10/31 09:22:17;;;;;;;25.40;19.50;;;;;;;14.63;51.92;100319.17;118070;1178;22940;-81
2021/10/31 09:24:50;;;;;;;28.50;20.20;;;;;;;14.73;51.89;100323.13;118304;1176;22881;-80
2021/10/31 09:27:27;;;;;;;26.10;22.60;;;;;;;14.81;51.72;100319.54;118242;1179;21906;-80
2021/10/31 09:30:10;;;;;;;29.60;25.40;;;;;;;14.91;51.65;100320.95;118547;1176;21897;-81
2021/10/31 09:32:49;;;;;;;42.80;28.50;;;;;;;15.01;51.69;100321.27;118535;1179;21896;-81
2021/10/31 09:35:24;;;;;;;37.40;33.40;;;;;;;15.08;51.42;100318.27;118278;1181;23458;-79
2021/10/31 09:38:01;;;;;;;29.10;24.60;;;;;;;15.12;51.14;100318.05;117843;1183;22545;-81
2021/10/31 09:40:36;;;;;;;29.70;22.80;;;;;;;15.15;51.03;100316.14;118230;1180;23052;-80
2021/10/31 09:43:06;;;;;;;;;;;;;;;15.18;51.01;100307.04;118597;1180;21880;-82
2021/10/31 09:45:37;;;;;;;26.70;20.50;;;;;;;15.18;51.01;100309.73;118078;1180;21975;-82
2021/10/31 09:48:12;;;;;;;29.10;23.30;;;;;;;15.20;50.98;100307.77;118172;1180;21964;-81
2021/10/31 09:50:48;;;;;;;28.20;25.00;;;;;;;15.28;51.00;100301.09;118263;1179;21930;-81
2021/10/31 09:53:21;;;;;;;29.00;25.90;;;;;;;15.35;50.81;100294.73;118236;1182;21876;-81
2021/10/31 09:55:49;;;;;;;43.20;32.40;;;;;;;15.40;50.61;100296.33;117694;1184;22105;-81
2021/10/31 09:58:26;;;;;;;33.30;24.00;;;;;;;15.46;50.62;100298.44;117998;1181;22007;-81
2021/10/31 10:01:00;;;;;;;26.70;22.10;;;;;;;15.49;50.41;100298.04;117791;1181;21941;-81
2021/10/31 10:03:35;;;;;;;26.20;19.60;;;;;;;15.52;50.30;100295.80;118364;1179;22382;-82
2021/10/31 10:06:25;;;;;;;34.20;21.60;;;;;;;15.61;50.58;100286.55;118425;1176;21855;-82
2021/10/31 10:09:29;;;;;;;35.80;22.20;;;;;;;15.77;50.69;100281.35;118803;1176;22841;-82
2021/10/31 10:12:16;;;;;;;29.00;23.50;;;;;;;16.02;50.44;100279.08;118827;1176;21862;-81
2021/10/31 10:15:07;;;;;;;28.20;23.70;;;;;;;16.26;50.01;100279.27;118535;1178;21874;-82
2021/10/31 10:17:50;;;;;;;36.40;24.60;;;;;;;16.49;49.39;100273.54;118732;1177;23474;-81
2021/10/31 10:20:20;;;;;;;21.40;18.40;;;;;;;16.74;48.85;100268.45;118881;1175;21880;-80
2021/10/31 10:22:49;;;;;;;19.80;17.80;;;;;;;17.00;48.36;100263.15;119065;1175;23439;-80
2021/10/31 10:25:37;;;;;;;20.10;17.50;;;;;;;17.32;48.20;100261.27;118939;1173;21863;-80
2021/10/31 10:28:22;;;;;;;26.10;22.50;;;;;;;17.77;47.90;100261.85;118394;1178;21914;-79
2021/10/31 10:30:50;;;;;;;32.90;25.00;;;;;;;18.29;47.25;100265.12;118225;1179;22625;-80
2021/10/31 10:33:22;;;;;;;21.40;19.10;;;;;;;18.84;46.88;100271.96;118185;1164;22897;-79
2021/10/31 10:35:58;;;;;;;;;;;;;;;19.31;45.24;100269.74;118622;1176;22902;-79
2021/10/31 10:38:27;;;;;;;38.30;26.60;;;;;;;19.70;44.46;100268.45;118587;1174;23443;-80
2021/10/31 10:40:54;;;;;;;41.70;28.00;;;;;;;20.18;44.12;100268.34;118416;1176;22620;-80
2021/10/31 10:43:34;;;;;;;73.70;47.20;;;;;;;20.58;42.41;100263.17;118564;1176;21930;-80
2021/10/31 10:46:17;;;;;;;52.50;33.10;;;;;;;20.85;41.16;100263.06;118881;1176;21890;-79
2021/10/31 10:48:56;;;;;;;16.70;14.40;;;;;;;21.07;40.09;100256.73;118582;1176;21869;-83
2021/10/31 10:51:23;;;;;;;26.90;21.30;;;;;;;21.28;39.31;100250.42;118437;1174;21883;-79
2021/10/31 10:54:12;;;;;;;25.80;19.80;;;;;;;21.28;37.53;100249.13;118962;1173;21866;-79
2021/10/31 10:57:08;;;;;;;26.70;18.30;;;;;;;21.07;37.47;100247.73;118956;1171;23509;-80
2021/10/31 10:59:36;;;;;;;22.40;16.80;;;;;;;21.00;38.03;100243.05;119104;1173;21854;-79
2021/10/31 11:02:09;;;;;;;32.20;22.90;;;;;;;20.90;37.87;100237.55;119020;1171;21877;-79
2021/10/31 11:04:43;;;;;;;26.30;21.10;;;;;;;20.85;38.24;100235.73;119145;1171;23403;-79
2021/10/31 11:07:14;;;;;;;20.40;16.20;;;;;;;20.77;38.00;100237.70;118908;1173;24178;-78
2021/10/31 11:09:48;;;;;;;17.40;15.60;;;;;;;20.58;37.86;100230.88;118926;1174;21875;-79
2021/10/31 11:12:37;;;;;;;18.30;15.20;;;;;;;20.41;38.10;100220.67;119096;1174;21857;-81
2021/10/31 11:15:11;;;;;;;14.10;12.20;;;;;;;20.14;37.93;100214.40;118844;1174;22904;-80
2021/10/31 11:17:42;;;;;;;13.10;11.80;;;;;;;19.80;38.04;100212.54;119023;1171;21880;-78
2021/10/31 11:20:14;;;;;;;17.40;11.80;;;;;;;19.55;38.53;100212.60;119312;1173;22722;-79
2021/10/31 11:22:51;;;;;;;13.90;12.40;;;;;;;19.36;39.13;100211.48;119206;1171;23397;-80
2021/10/31 11:25:23;;;;;;;14.00;12.60;;;;;;;19.24;39.49;100208.97;119303;1170;23508;-80
2021/10/31 11:27:53;;;;;;;76.30;19.00;;;;;;;19.15;39.89;100205.52;119250;1159;21851;-79
2021/10/31 11:30:23;;;;;;;286.90;39.10;;;;;;;19.11;40.08;100200.97;119305;1172;22853;-76
2021/10/31 11:32:55;;;;;;;17.60;12.80;;;;;;;19.05;40.02;100201.50;119436;1168;22875;-79
2021/10/31 11:35:24;;;;;;;17.20;12.90;;;;;;;19.01;40.38;100195.54;119171;1172;21876;-77
2021/10/31 11:38:17;;;;;;;13.60;12.20;;;;;;;19.02;40.63;100197.38;119374;1171;21902;-77